Terminal Aerodrome Forecast
Issued by NWS Medford, OR

Home | Current Version | Previous Version | Text Only | Print | Product List | Glossary On
Versions: 1 2 3 4 5 6 7 8 9 10 11 12 13 14 15 16 17
000
FTUS46 KMFR 222300
TAFMFR
TAF
KMFR 222337Z 2300/2324 30007KT P6SM VCTS SCT050CB BKN090
     FM230400 VRB03KT P6SM SCT050 BKN090
     FM230900 VRB03KT P6SM SCT020 BKN040
     FM231600 32004KT P6SM BKN050
     FM232000 32012G19KT P6SM BKN050=

USA.gov is the U.S. government's official web portal to all federal, state and local government web resources and services.